Mindoro Star — V7RE6 — position and weather

sailwx.info

Track history (hours):
 
Tides and Currents Weather Stations Pressure Air Temp Water Temp Dewpoint Dewpoint Depression Visibility Wind Speed Wind Dir Waves Ship Positions

Mindoro Star

Last reported at 2015-May-28 14:33 UTC. Time now 2015-May-28 20:17 UTC.
Position N 59°41' E 026°56'.

Length 238 m; draft 9.6 m.

Type: Tanker. MMSI: 538003490.

Date/timePositionNaut miles runAvg speedWind from/ knotsBaromVisibWave heightAir tempDewpointWater temp
2015-May-28 14:33N 59°41' E 026°56'1313.0
2015-May-28 13:33N 59°49' E 026°35'1313.1
2015-May-28 12:32N 59°53' E 026°10'1414.1
2015-May-28 11:33N 59°50' E 025°43'  
2015-May-26 05:18N 59°32' E 024°57'1112.0
2015-May-26 04:24N 59°41' E 024°44'910.1
2015-May-26 03:33N 59°42' E 024°27'1211.6
2015-May-26 02:33N 59°39' E 024°04'1312.6
2015-May-26 01:30N 59°35' E 023°40'1212.7
2015-May-26 00:31N 59°31' E 023°16'1812.7
2015-May-25 23:06N 59°26' E 022°43'712.7
2015-May-25 22:33N 59°22' E 022°30'3912.7
2015-May-25 19:27N 58°56' E 021°33'27612.9
2015-May-24 22:06N 55°40' E 015°33'713.6
2015-May-24 21:34N 55°37' E 015°21'1413.6
2015-May-24 20:33N 55°30' E 015°00'1313.5
2015-May-24 19:33N 55°24' E 014°39'1313.5
2015-May-24 18:34N 55°13' E 014°26'1313.2
2015-May-24 17:33N 55°02' E 014°11'1312.7
2015-May-24 16:32N 54°57' E 013°51'1313.0
2015-May-24 15:33N 54°53' E 013°30'1513.4
2015-May-24 14:26N 54°49' E 013°05'3113.6
2015-May-24 12:07N 54°33' E 012°18'712.0
2015-May-24 11:33N 54°27' E 012°12'1313.0
2015-May-24 10:33N 54°25' E 011°50'1413.7
2015-May-24 09:34N 54°30' E 011°29'1413.6
2015-May-24 08:34N 54°36' E 011°08'1412.4
2015-May-24 07:27N 54°45' E 010°49'1213.4
2015-May-24 06:33N 54°56' E 010°56'1313.1
2015-May-24 05:33N 55°09' E 011°03'1312.6
2015-May-24 04:33N 55°21' E 011°02'5212.3
2015-May-24 00:20N 56°14' E 011°04'3211.4
2015-May-23 21:33N 56°39' E 011°38'1211.5
2015-May-23 20:33N 56°49' E 011°49'1413.6
2015-May-23 19:34N 57°01' E 011°40'1413.5
2015-May-23 18:33N 57°14' E 011°31'1313.0
2015-May-23 17:34N 57°26' E 011°23'1413.6
2015-May-23 16:33N 57°36' E 011°05'1313.1
2015-May-23 15:33N 57°44' E 010°45'1010.2
2015-May-23 14:33N 57°47' E 010°27'1414.1
2015-May-23 13:33N 57°47' E 010°01'1413.7
2015-May-23 12:33N 57°44' E 009°36'1413.8
2015-May-23 11:33N 57°39' E 009°11'1413.6
2015-May-23 10:32N 57°35' E 008°47'40312.6
2015-May-22 02:33N 59°31' W 003°32'  
Track history (hours):
 
Tides and Currents Weather Stations Pressure Air Temp Water Temp Dewpoint Dewpoint Depression Visibility Wind Speed Wind Dir Waves Ship Positions

Mindoro Star

Last reported at 2015-May-28 14:33 UTC. Time now 2015-May-28 20:17 UTC.
Position N 59°41' E 026°56'.

Length 238 m; draft 9.6 m.

Type: Tanker. MMSI: 538003490.

Date/timePositionNaut miles runAvg speedWind from/ knotsBaromVisibWave heightAir tempDewpointWater temp
2015-May-28 14:33N 59°41' E 026°56'1313.0
2015-May-28 13:33N 59°49' E 026°35'1313.1
2015-May-28 12:32N 59°53' E 026°10'1414.1
2015-May-28 11:33N 59°50' E 025°43'  
2015-May-26 05:18N 59°32' E 024°57'1112.0
2015-May-26 04:24N 59°41' E 024°44'910.1
2015-May-26 03:33N 59°42' E 024°27'1211.6
2015-May-26 02:33N 59°39' E 024°04'1312.6
2015-May-26 01:30N 59°35' E 023°40'1212.7
2015-May-26 00:31N 59°31' E 023°16'1812.7
2015-May-25 23:06N 59°26' E 022°43'712.7
2015-May-25 22:33N 59°22' E 022°30'3912.7
2015-May-25 19:27N 58°56' E 021°33'27612.9
2015-May-24 22:06N 55°40' E 015°33'713.6
2015-May-24 21:34N 55°37' E 015°21'1413.6
2015-May-24 20:33N 55°30' E 015°00'1313.5
2015-May-24 19:33N 55°24' E 014°39'1313.5
2015-May-24 18:34N 55°13' E 014°26'1313.2
2015-May-24 17:33N 55°02' E 014°11'1312.7
2015-May-24 16:32N 54°57' E 013°51'1313.0
2015-May-24 15:33N 54°53' E 013°30'1513.4
2015-May-24 14:26N 54°49' E 013°05'3113.6
2015-May-24 12:07N 54°33' E 012°18'712.0
2015-May-24 11:33N 54°27' E 012°12'1313.0
2015-May-24 10:33N 54°25' E 011°50'1413.7
2015-May-24 09:34N 54°30' E 011°29'1413.6
2015-May-24 08:34N 54°36' E 011°08'1412.4
2015-May-24 07:27N 54°45' E 010°49'1213.4
2015-May-24 06:33N 54°56' E 010°56'1313.1
2015-May-24 05:33N 55°09' E 011°03'1312.6
2015-May-24 04:33N 55°21' E 011°02'5212.3
2015-May-24 00:20N 56°14' E 011°04'3211.4
2015-May-23 21:33N 56°39' E 011°38'1211.5
2015-May-23 20:33N 56°49' E 011°49'1413.6
2015-May-23 19:34N 57°01' E 011°40'1413.5
2015-May-23 18:33N 57°14' E 011°31'1313.0
2015-May-23 17:34N 57°26' E 011°23'1413.6
2015-May-23 16:33N 57°36' E 011°05'1313.1
2015-May-23 15:33N 57°44' E 010°45'1010.2
2015-May-23 14:33N 57°47' E 010°27'1414.1
2015-May-23 13:33N 57°47' E 010°01'1413.7
2015-May-23 12:33N 57°44' E 009°36'1413.8
2015-May-23 11:33N 57°39' E 009°11'1413.6
2015-May-23 10:32N 57°35' E 008°47'40312.6
2015-May-22 02:33N 59°31' W 003°32'  

Dump ship's entire track history